Tropical Cyclones
[Index]
Main Index Home Page Stock Weather Photos Extreme Storms Discussion Storm News and Storm Chasing Reports Tropical Cyclones / Hurricanes / Typhoons Weather Data and Links Wild Fires / Bushfires Weather Observation Techniques Weather Picture Catalogue Tornado Pictures and Reports Stock Video Footage and DVDs for sale
Season 2010-2011 Tropical Cyclone DIANNE Track Map
Season 2010-2011 Summaries (Operational Data): [AU] [SIO] [SPAC] [SH]
<<- Previous TC | 2010-2011 Season | Next TC ->>

click for intensity scale information  Lat/long Grid: Show Hide

 Date Labels: Show Hide

Operational Tropical Cyclone Data : JTWC Advisories | BoM Warnings

Name: DIANNE
Number: 1116

15 Feb 2011 06:00 UTC to 23 Feb 2011 06:00 UTC

    date/time    lat    long     hPa   cat  kts
2011-02-15 06   19.1   112.7     995         25          
2011-02-15 12   19.2   111.8     995         30          
2011-02-15 18   19.2   111.2     995         30          
2011-02-16 00   19.2   111.5     992         30          
2011-02-16 06   19.1   111.2     992         30          
2011-02-16 12   18.8   111.2     986    1    40          
2011-02-16 18   19.3   111.7     987    1    40          
2011-02-17 00   19.3   111.7     986    1    45          
2011-02-17 06   19.2   111.4     978    2    50          
2011-02-17 12   18.7   110.6     972    2    55          
2011-02-17 18   19.1   110.8     972    2    55          
2011-02-18 00   20.0   110.0     972    2    55          
2011-02-18 06   20.2   109.8     975    2    55          
2011-02-18 12   20.9   109.1     970    2    60          
2011-02-18 18   21.3   108.0     970    2    60          
2011-02-19 00   21.5   108.1     965    3    65          
2011-02-19 06   22.1   107.7     962    3    70          
2011-02-19 12   22.7   107.6     962    3    70          
2011-02-19 18   23.2   107.4     962    3    70          
2011-02-20 00   23.7   107.2     968    3    65          
2011-02-20 06   24.4   106.6     968    3    65          
2011-02-20 12   24.6   106.0     967    3    65          
2011-02-20 18   25.0   105.3     970    2    60          
2011-02-21 00   25.2   104.1     970    2    60          
2011-02-21 06   25.9   103.3     980    2    50          
2011-02-21 12   26.9   102.6     980    2    50          
2011-02-21 18   27.3   102.0     987    1    40          
2011-02-22 00   28.3   101.9     992         30          
2011-02-22 06   29.7   102.4     999                     
2011-02-22 12   30.2   102.6     999                     
2011-02-22 18   30.4   102.5    1001                     
2011-02-23 00   29.9   102.5    1003                     
2011-02-23 06   30.4   102.7    1004                     
Winds are 10-min average.

Tropical cyclone tracks developed by Michael Bath using operational warnings and advisories and Google Maps.


[Australian Severe Weather index] [Copyright Notice] [Email Contacts] [Search This Site] [Privacy Policy]
Document: tropical_cyclone_dianne.htm Updated: 2 May 2017